createdAt,value
2023-01-18T00:45:05.233Z,100.00
2023-01-18T01:22:04.011Z,100.00
2023-01-18T01:24:49.606Z,100.00
2023-01-18T01:27:17.735Z,100.00
2023-01-18T01:29:44.914Z,100.00
2023-01-18T01:32:12.162Z,100.00
2023-01-18T01:34:39.133Z,100.00
2023-01-18T01:37:06.140Z,100.00
2023-01-18T01:39:33.258Z,100.00
2023-01-18T01:42:00.357Z,100.00
2023-01-18T01:44:34.517Z,100.00
2023-01-18T01:47:14.782Z,100.00
2023-01-18T01:49:44.699Z,100.00
2023-01-18T01:52:17.419Z,100.00
2023-01-18T01:54:46.466Z,100.00
2023-01-18T01:57:17.516Z,100.00
2023-01-18T01:59:52.506Z,100.00
2023-01-18T02:02:19.751Z,100.00
2023-01-18T02:04:53.606Z,100.00
2023-01-18T02:07:26.491Z,100.00
2023-01-18T02:09:53.549Z,100.00
2023-01-18T02:12:20.705Z,100.00
2023-01-18T02:14:47.837Z,100.00
2023-01-18T02:17:24.523Z,100.00
2023-01-18T02:20:26.074Z,100.00
2023-01-18T02:23:32.916Z,100.00
2023-01-18T02:26:19.339Z,100.00
2023-01-18T02:28:49.774Z,100.00
2023-01-18T02:31:21.725Z,100.00
2023-01-18T02:34:00.134Z,100.00
2023-01-18T02:36:36.172Z,100.00
2023-01-18T02:39:10.817Z,100.00
2023-01-18T02:42:01.405Z,100.00
2023-01-18T02:44:49.763Z,100.00
2023-01-18T02:47:16.767Z,100.00
2023-01-18T02:49:46.462Z,100.00
2023-01-18T02:52:53.657Z,100.00
2023-01-18T02:55:43.513Z,100.00
2023-01-18T02:58:27.653Z,100.00
2023-01-18T03:01:06.932Z,100.00
2023-01-18T03:03:34.921Z,100.00
2023-01-18T03:06:02.916Z,100.00
2023-01-18T03:08:51.678Z,100.00
2023-01-18T03:11:37.870Z,100.00
2023-01-18T03:14:28.052Z,100.00
2023-01-18T03:17:06.466Z,100.00
2023-01-18T03:19:52.173Z,100.00
2023-01-18T03:22:41.757Z,100.00
2023-01-18T03:25:09.084Z,100.00
2023-01-18T03:27:55.586Z,100.00
2023-01-18T03:30:44.167Z,100.00
2023-01-18T03:33:30.045Z,100.00
2023-01-18T03:35:57.170Z,100.00
2023-01-18T03:38:24.018Z,100.00
2023-01-18T03:40:51.162Z,100.00
2023-01-18T03:43:19.640Z,100.00
2023-01-18T03:45:48.250Z,100.00
2023-01-18T03:48:15.380Z,100.00
2023-01-18T03:50:54.512Z,100.00
2023-01-18T03:53:32.823Z,100.00
2023-01-18T03:56:03.070Z,100.00
2023-01-18T03:58:33.375Z,100.00
2023-01-18T04:01:04.366Z,100.00
2023-01-18T04:03:34.936Z,100.00
2023-01-18T04:06:02.915Z,100.00
2023-01-18T04:08:29.784Z,100.00
2023-01-18T04:10:56.887Z,100.00
2023-01-18T04:13:23.916Z,100.00
2023-01-18T04:15:50.992Z,100.00
2023-01-18T04:18:18.130Z,100.00
2023-01-18T04:20:45.073Z,100.00
2023-01-18T04:23:12.123Z,100.00
2023-01-18T04:25:41.129Z,100.00
2023-01-18T04:28:08.274Z,100.00
2023-01-18T04:30:35.318Z,100.00
2023-01-18T04:35:47.853Z,100.00
2023-01-18T04:38:15.187Z,100.00
2023-01-18T04:40:42.546Z,100.00
2023-01-18T04:43:09.682Z,100.00
2023-01-18T04:45:36.746Z,100.00
2023-01-18T04:48:04.411Z,100.00
2023-01-18T04:50:31.573Z,100.00
2023-01-18T04:52:59.168Z,100.00
2023-01-18T04:55:26.588Z,100.00
2023-01-18T04:57:57.308Z,100.00
2023-01-18T05:00:24.359Z,100.00
2023-01-18T05:02:51.503Z,100.00
2023-01-18T05:05:18.548Z,100.00
2023-01-18T05:07:45.510Z,100.00
2023-01-18T05:17:58.569Z,100.00
2023-01-18T05:20:25.488Z,100.00
2023-01-18T05:23:14.573Z,100.00
2023-01-18T05:25:41.809Z,100.00
2023-01-18T05:28:12.141Z,100.00
2023-01-18T05:30:40.618Z,100.00
2023-01-18T05:33:09.274Z,100.00
2023-01-18T05:35:36.280Z,100.00
2023-01-18T05:38:03.513Z,100.00
2023-01-18T05:40:30.452Z,100.00
2023-01-18T05:43:00.907Z,100.00
2023-01-18T05:45:28.215Z,100.00
2023-01-18T05:47:55.289Z,100.00
2023-01-18T05:50:22.446Z,100.00
2023-01-18T05:52:53.467Z,100.00
2023-01-18T05:55:20.640Z,100.00
2023-01-18T05:57:47.810Z,100.00
2023-01-18T06:00:15.027Z,100.00
2023-01-18T06:02:42.063Z,100.00
2023-01-18T06:05:12.364Z,100.00
2023-01-18T06:07:43.168Z,100.00
2023-01-18T06:10:12.218Z,100.00
2023-01-18T06:12:39.377Z,100.00
2023-01-18T06:15:07.582Z,100.00
2023-01-18T06:17:36.224Z,100.00
2023-01-18T06:20:04.640Z,100.00
2023-01-18T06:22:31.709Z,100.00
2023-01-18T06:25:03.601Z,100.00
2023-01-18T06:27:50.756Z,100.00
2023-01-18T06:30:18.983Z,100.00
2023-01-18T06:32:47.166Z,100.00
2023-01-18T06:35:16.991Z,100.00
2023-01-18T06:37:44.893Z,100.00
2023-01-18T06:40:12.170Z,100.00
2023-01-18T06:42:39.799Z,100.00
2023-01-18T06:45:12.978Z,100.00
2023-01-18T06:47:40.193Z,100.00
2023-01-18T06:50:08.315Z,100.00
2023-01-18T06:52:35.196Z,100.00
2023-01-18T06:55:02.252Z,100.00
2023-01-18T06:57:29.288Z,100.00
2023-01-18T07:00:01.130Z,100.00
2023-01-18T07:02:31.042Z,100.00
2023-01-18T07:04:58.039Z,100.00
2023-01-18T07:07:25.457Z,100.00
2023-01-18T07:09:53.555Z,100.00
2023-01-18T07:17:09.492Z,100.00
2023-01-18T09:34:58.502Z,100.00
2023-01-18T11:44:30.265Z,100.00
2023-01-18T11:48:24.528Z,100.00
2023-01-18T13:35:29.179Z,100.00
2023-01-18T13:38:49.343Z,100.00
2023-01-18T14:21:03.282Z,100.00
2023-01-18T14:23:55.110Z,100.00
2023-01-18T14:26:22.758Z,100.00
2023-01-18T14:28:52.424Z,100.00
2023-01-18T14:31:21.631Z,100.00
2023-01-18T14:33:50.159Z,100.00
2023-01-18T14:36:26.388Z,100.00
2023-01-18T14:39:13.238Z,100.00
2023-01-18T14:41:44.790Z,100.00
2023-01-18T14:44:24.205Z,100.00
2023-01-18T14:46:55.602Z,100.00
2023-01-18T14:49:42.695Z,100.00
2023-01-18T14:52:12.547Z,100.00
2023-01-18T14:54:39.487Z,100.00
2023-01-18T14:57:09.028Z,100.00
2023-01-18T14:59:36.128Z,100.00
2023-01-18T15:02:15.437Z,100.00
2023-01-18T15:04:46.683Z,100.00
2023-01-18T15:07:17.420Z,100.00
2023-01-18T15:09:45.717Z,100.00
2023-01-18T15:17:02.506Z,100.00
2023-01-18T15:28:46.187Z,100.00
2023-01-18T21:50:58.101Z,90.94
2023-01-18T22:22:03.997Z,92.09
2023-01-18T22:24:30.991Z,92.21
2023-01-18T22:26:58.071Z,92.60
2023-01-18T22:29:24.960Z,92.83
2023-01-18T22:31:53.303Z,93.10
2023-01-18T22:34:20.542Z,93.28
2023-01-18T22:36:47.511Z,93.41
2023-01-18T22:39:15.009Z,93.33
2023-01-18T22:41:42.205Z,93.37
2023-01-18T22:44:15.193Z,93.23
2023-01-18T22:46:42.265Z,93.27
2023-01-18T22:49:09.283Z,93.30
2023-01-18T22:51:36.101Z,93.44
2023-01-18T22:54:03.166Z,93.51
2023-01-18T22:56:30.220Z,93.61
2023-01-18T22:58:57.386Z,93.63
2023-01-18T23:01:26.805Z,93.94
2023-01-18T23:03:55.914Z,94.16
2023-01-18T23:06:23.032Z,94.79
2023-01-18T23:08:51.400Z,95.37
2023-01-18T23:11:21.025Z,96.10
2023-01-18T23:14:15.287Z,96.37
2023-01-18T23:17:02.804Z,96.92
2023-01-18T23:19:30.871Z,97.29
2023-01-18T23:21:58.348Z,97.50
2023-01-18T23:24:25.722Z,97.65
2023-01-18T23:26:52.844Z,97.39
2023-01-18T23:29:22.966Z,97.52
2023-01-18T23:31:50.233Z,97.92
2023-01-18T23:34:17.554Z,98.16
2023-01-18T23:36:44.481Z,98.38
2023-01-18T23:39:29.973Z,98.75
2023-01-18T23:42:15.262Z,99.14
2023-01-18T23:45:01.193Z,99.56
2023-01-18T23:47:46.876Z,99.99
2023-01-18T23:50:32.841Z,100.00
2023-01-18T23:53:19.098Z,100.00
2023-01-18T23:55:46.073Z,100.00
2023-01-18T23:58:13.079Z,100.00
